sensor_id;sensor_type;location;lat;lon;timestamp;temperature;humidity
51841;DHT22;37888;53.246;6.658;2023-12-20T00:02:10;5.10;99.90
51841;DHT22;37888;53.246;6.658;2023-12-20T00:04:35;5.10;99.90
51841;DHT22;37888;53.246;6.658;2023-12-20T00:07:01;5.10;99.90
51841;DHT22;37888;53.246;6.658;2023-12-20T00:09:27;5.00;99.90
51841;DHT22;37888;53.246;6.658;2023-12-20T00:11:52;5.00;99.90
51841;DHT22;37888;53.246;6.658;2023-12-20T00:14:18;5.00;99.90
51841;DHT22;37888;53.246;6.658;2023-12-20T00:16:43;5.00;99.90
51841;DHT22;37888;53.246;6.658;2023-12-20T00:19:09;5.00;99.90
51841;DHT22;37888;53.246;6.658;2023-12-20T00:21:34;5.00;99.90
51841;DHT22;37888;53.246;6.658;2023-12-20T00:24:00;4.90;99.90
51841;DHT22;37888;53.246;6.658;2023-12-20T00:26:26;5.00;99.90
51841;DHT22;37888;53.246;6.658;2023-12-20T00:28:53;4.90;99.90
51841;DHT22;37888;53.246;6.658;2023-12-20T00:31:19;4.90;99.90
51841;DHT22;37888;53.246;6.658;2023-12-20T00:33:44;4.90;99.90
51841;DHT22;37888;53.246;6.658;2023-12-20T00:36:11;4.80;99.90
51841;DHT22;37888;53.246;6.658;2023-12-20T00:38:37;4.70;99.90
51841;DHT22;37888;53.246;6.658;2023-12-20T00:43:28;4.70;99.90
51841;DHT22;37888;53.246;6.658;2023-12-20T00:45:54;4.80;99.90
51841;DHT22;37888;53.246;6.658;2023-12-20T00:48:20;4.80;99.90
51841;DHT22;37888;53.246;6.658;2023-12-20T00:50:46;4.90;99.90
51841;DHT22;37888;53.246;6.658;2023-12-20T00:53:12;5.00;99.90
51841;DHT22;37888;53.246;6.658;2023-12-20T00:55:37;5.10;99.90
51841;DHT22;37888;53.246;6.658;2023-12-20T00:58:03;5.10;99.90
51841;DHT22;37888;53.246;6.658;2023-12-20T01:00:29;5.20;99.90
51841;DHT22;37888;53.246;6.658;2023-12-20T01:02:54;5.70;99.90
51841;DHT22;37888;53.246;6.658;2023-12-20T01:05:20;5.20;99.90
51841;DHT22;37888;53.246;6.658;2023-12-20T01:07:48;5.20;99.90
51841;DHT22;37888;53.246;6.658;2023-12-20T01:10:14;5.20;99.90
51841;DHT22;37888;53.246;6.658;2023-12-20T01:12:40;5.20;99.90
51841;DHT22;37888;53.246;6.658;2023-12-20T01:15:05;5.10;99.90
51841;DHT22;37888;53.246;6.658;2023-12-20T01:17:31;5.10;99.90
51841;DHT22;37888;53.246;6.658;2023-12-20T01:19:57;5.10;99.90
51841;DHT22;37888;53.246;6.658;2023-12-20T01:22:23;5.20;99.90
51841;DHT22;37888;53.246;6.658;2023-12-20T01:24:49;5.80;99.90
51841;DHT22;37888;53.246;6.658;2023-12-20T01:27:14;5.00;99.90
51841;DHT22;37888;53.246;6.658;2023-12-20T01:29:40;4.90;99.90
51841;DHT22;37888;53.246;6.658;2023-12-20T01:32:06;5.10;99.90
51841;DHT22;37888;53.246;6.658;2023-12-20T01:34:32;5.00;99.90
51841;DHT22;37888;53.246;6.658;2023-12-20T01:36:57;5.10;99.90
51841;DHT22;37888;53.246;6.658;2023-12-20T01:39:23;5.10;99.90
51841;DHT22;37888;53.246;6.658;2023-12-20T01:41:49;5.30;99.90
51841;DHT22;37888;53.246;6.658;2023-12-20T01:44:14;5.30;99.90
51841;DHT22;37888;53.246;6.658;2023-12-20T01:46:40;5.40;99.90
51841;DHT22;37888;53.246;6.658;2023-12-20T01:49:06;5.50;99.90
51841;DHT22;37888;53.246;6.658;2023-12-20T01:51:32;5.50;99.90
51841;DHT22;37888;53.246;6.658;2023-12-20T01:53:58;5.40;99.90
51841;DHT22;37888;53.246;6.658;2023-12-20T01:56:25;5.50;99.90
51841;DHT22;37888;53.246;6.658;2023-12-20T01:58:51;5.40;99.90
51841;DHT22;37888;53.246;6.658;2023-12-20T02:01:16;5.40;99.90
51841;DHT22;37888;53.246;6.658;2023-12-20T02:03:42;5.40;99.90
51841;DHT22;37888;53.246;6.658;2023-12-20T02:06:08;5.40;99.90
51841;DHT22;37888;53.246;6.658;2023-12-20T02:08:34;5.40;99.90
51841;DHT22;37888;53.246;6.658;2023-12-20T02:11:01;5.40;99.90
51841;DHT22;37888;53.246;6.658;2023-12-20T02:13:30;5.40;99.90
51841;DHT22;37888;53.246;6.658;2023-12-20T02:15:58;5.40;99.90
51841;DHT22;37888;53.246;6.658;2023-12-20T02:18:24;5.50;99.90
51841;DHT22;37888;53.246;6.658;2023-12-20T02:20:49;5.50;99.90
51841;DHT22;37888;53.246;6.658;2023-12-20T02:23:15;5.40;99.90
51841;DHT22;37888;53.246;6.658;2023-12-20T02:25:41;5.40;99.90
51841;DHT22;37888;53.246;6.658;2023-12-20T02:28:06;5.40;99.90
51841;DHT22;37888;53.246;6.658;2023-12-20T02:30:32;5.40;99.90
51841;DHT22;37888;53.246;6.658;2023-12-20T02:32:59;5.30;99.90
51841;DHT22;37888;53.246;6.658;2023-12-20T02:35:25;5.40;99.90
51841;DHT22;37888;53.246;6.658;2023-12-20T02:37:51;5.40;99.90
51841;DHT22;37888;53.246;6.658;2023-12-20T02:40:16;5.40;99.90
51841;DHT22;37888;53.246;6.658;2023-12-20T02:42:42;5.40;99.90
51841;DHT22;37888;53.246;6.658;2023-12-20T02:45:07;5.40;99.90
51841;DHT22;37888;53.246;6.658;2023-12-20T02:47:33;5.40;99.90
51841;DHT22;37888;53.246;6.658;2023-12-20T02:49:59;5.40;99.90
51841;DHT22;37888;53.246;6.658;2023-12-20T02:52:24;5.40;99.90
51841;DHT22;37888;53.246;6.658;2023-12-20T02:54:50;5.20;99.90
51841;DHT22;37888;53.246;6.658;2023-12-20T02:57:16;5.60;99.90
51841;DHT22;37888;53.246;6.658;2023-12-20T02:59:41;5.50;99.90
51841;DHT22;37888;53.246;6.658;2023-12-20T03:02:07;5.50;99.90
51841;DHT22;37888;53.246;6.658;2023-12-20T03:04:33;5.40;99.90
51841;DHT22;37888;53.246;6.658;2023-12-20T03:06:58;5.50;99.90
51841;DHT22;37888;53.246;6.658;2023-12-20T03:09:24;5.40;99.90
51841;DHT22;37888;53.246;6.658;2023-12-20T03:11:49;5.40;99.90
51841;DHT22;37888;53.246;6.658;2023-12-20T03:14:16;5.40;99.90
51841;DHT22;37888;53.246;6.658;2023-12-20T03:16:46;5.40;99.90
51841;DHT22;37888;53.246;6.658;2023-12-20T03:19:11;5.30;99.90
51841;DHT22;37888;53.246;6.658;2023-12-20T03:21:37;5.40;99.90
51841;DHT22;37888;53.246;6.658;2023-12-20T03:24:03;5.30;99.90
51841;DHT22;37888;53.246;6.658;2023-12-20T03:26:28;5.30;99.90
51841;DHT22;37888;53.246;6.658;2023-12-20T03:28:54;5.40;99.90
51841;DHT22;37888;53.246;6.658;2023-12-20T03:31:19;5.50;99.90
51841;DHT22;37888;53.246;6.658;2023-12-20T03:33:46;5.60;99.90
51841;DHT22;37888;53.246;6.658;2023-12-20T03:36:12;5.70;99.90
51841;DHT22;37888;53.246;6.658;2023-12-20T03:38:37;5.70;99.90
51841;DHT22;37888;53.246;6.658;2023-12-20T03:41:04;5.60;99.90
51841;DHT22;37888;53.246;6.658;2023-12-20T03:43:29;5.60;99.90
51841;DHT22;37888;53.246;6.658;2023-12-20T03:45:55;5.50;99.90
51841;DHT22;37888;53.246;6.658;2023-12-20T03:48:20;5.50;99.90
51841;DHT22;37888;53.246;6.658;2023-12-20T03:50:46;5.40;99.90
51841;DHT22;37888;53.246;6.658;2023-12-20T03:53:12;5.40;99.90
51841;DHT22;37888;53.246;6.658;2023-12-20T03:55:38;5.40;99.90
51841;DHT22;37888;53.246;6.658;2023-12-20T03:58:03;5.40;99.90
51841;DHT22;37888;53.246;6.658;2023-12-20T04:00:29;5.40;99.90
51841;DHT22;37888;53.246;6.658;2023-12-20T04:02:54;5.40;99.90
51841;DHT22;37888;53.246;6.658;2023-12-20T04:05:20;5.40;99.90
51841;DHT22;37888;53.246;6.658;2023-12-20T04:07:46;5.50;99.90
51841;DHT22;37888;53.246;6.658;2023-12-20T04:10:11;5.50;99.90
51841;DHT22;37888;53.246;6.658;2023-12-20T04:12:37;5.40;99.90
51841;DHT22;37888;53.246;6.658;2023-12-20T04:15:02;5.40;99.90
51841;DHT22;37888;53.246;6.658;2023-12-20T04:17:34;3.80;99.90
51841;DHT22;37888;53.246;6.658;2023-12-20T04:20:00;5.40;99.90
51841;DHT22;37888;53.246;6.658;2023-12-20T04:22:25;5.40;99.90
51841;DHT22;37888;53.246;6.658;2023-12-20T04:24:51;5.50;99.90
51841;DHT22;37888;53.246;6.658;2023-12-20T04:27:17;5.50;99.90
51841;DHT22;37888;53.246;6.658;2023-12-20T04:29:42;5.40;99.90
51841;DHT22;37888;53.246;6.658;2023-12-20T04:32:08;5.40;99.90
51841;DHT22;37888;53.246;6.658;2023-12-20T04:34:33;5.50;99.90
51841;DHT22;37888;53.246;6.658;2023-12-20T04:36:59;5.60;99.90
51841;DHT22;37888;53.246;6.658;2023-12-20T04:39:27;5.60;99.90
51841;DHT22;37888;53.246;6.658;2023-12-20T04:41:52;5.60;99.90
51841;DHT22;37888;53.246;6.658;2023-12-20T04:44:18;5.70;99.90
51841;DHT22;37888;53.246;6.658;2023-12-20T04:46:43;5.80;99.90
51841;DHT22;37888;53.246;6.658;2023-12-20T04:49:09;5.90;99.90
51841;DHT22;37888;53.246;6.658;2023-12-20T04:51:35;6.00;99.90
51841;DHT22;37888;53.246;6.658;2023-12-20T04:54:01;6.10;99.90
51841;DHT22;37888;53.246;6.658;2023-12-20T04:56:27;6.10;99.90
51841;DHT22;37888;53.246;6.658;2023-12-20T04:58:52;6.10;99.90
51841;DHT22;37888;53.246;6.658;2023-12-20T05:01:18;6.20;99.90
51841;DHT22;37888;53.246;6.658;2023-12-20T05:03:43;6.20;99.90
51841;DHT22;37888;53.246;6.658;2023-12-20T05:06:09;6.20;99.90
51841;DHT22;37888;53.246;6.658;2023-12-20T05:08:35;6.20;99.90
51841;DHT22;37888;53.246;6.658;2023-12-20T05:11:01;6.30;99.90
51841;DHT22;37888;53.246;6.658;2023-12-20T05:13:27;6.30;99.90
51841;DHT22;37888;53.246;6.658;2023-12-20T05:15:52;6.30;99.90
51841;DHT22;37888;53.246;6.658;2023-12-20T05:18:20;6.40;99.90
51841;DHT22;37888;53.246;6.658;2023-12-20T05:20:45;6.30;99.90
51841;DHT22;37888;53.246;6.658;2023-12-20T05:23:11;6.40;99.90
51841;DHT22;37888;53.246;6.658;2023-12-20T05:25:38;6.40;99.90
51841;DHT22;37888;53.246;6.658;2023-12-20T05:28:04;6.40;99.90
51841;DHT22;37888;53.246;6.658;2023-12-20T05:30:30;6.40;99.90
51841;DHT22;37888;53.246;6.658;2023-12-20T05:32:55;6.40;99.90
51841;DHT22;37888;53.246;6.658;2023-12-20T05:35:21;6.40;99.90
51841;DHT22;37888;53.246;6.658;2023-12-20T05:37:49;6.50;99.90
51841;DHT22;37888;53.246;6.658;2023-12-20T05:40:14;6.40;99.90
51841;DHT22;37888;53.246;6.658;2023-12-20T05:42:40;6.40;99.90
51841;DHT22;37888;53.246;6.658;2023-12-20T05:45:06;6.50;99.90
51841;DHT22;37888;53.246;6.658;2023-12-20T05:47:31;6.40;99.90
51841;DHT22;37888;53.246;6.658;2023-12-20T05:49:57;6.50;99.90
51841;DHT22;37888;53.246;6.658;2023-12-20T05:52:23;6.50;99.90
51841;DHT22;37888;53.246;6.658;2023-12-20T05:54:49;5.90;99.90
51841;DHT22;37888;53.246;6.658;2023-12-20T05:57:14;6.50;99.90
51841;DHT22;37888;53.246;6.658;2023-12-20T05:59:40;6.60;99.90
51841;DHT22;37888;53.246;6.658;2023-12-20T06:02:05;6.60;99.90
51841;DHT22;37888;53.246;6.658;2023-12-20T06:04:31;6.60;99.90
51841;DHT22;37888;53.246;6.658;2023-12-20T06:06:57;6.60;99.90
51841;DHT22;37888;53.246;6.658;2023-12-20T06:09:22;6.60;99.90
51841;DHT22;37888;53.246;6.658;2023-12-20T06:11:48;6.60;99.90
51841;DHT22;37888;53.246;6.658;2023-12-20T06:14:13;6.60;99.90
51841;DHT22;37888;53.246;6.658;2023-12-20T06:16:39;6.60;99.90
51841;DHT22;37888;53.246;6.658;2023-12-20T06:19:05;6.60;99.90
51841;DHT22;37888;53.246;6.658;2023-12-20T06:21:30;6.60;99.90
51841;DHT22;37888;53.246;6.658;2023-12-20T06:23:56;6.70;99.90
51841;DHT22;37888;53.246;6.658;2023-12-20T06:26:22;7.90;99.90
51841;DHT22;37888;53.246;6.658;2023-12-20T06:28:47;6.70;99.90
51841;DHT22;37888;53.246;6.658;2023-12-20T06:31:13;6.80;99.90
51841;DHT22;37888;53.246;6.658;2023-12-20T06:33:38;6.90;99.90
51841;DHT22;37888;53.246;6.658;2023-12-20T06:36:06;6.80;99.90
51841;DHT22;37888;53.246;6.658;2023-12-20T06:38:32;6.90;99.90
51841;DHT22;37888;53.246;6.658;2023-12-20T06:40:57;7.10;99.90
51841;DHT22;37888;53.246;6.658;2023-12-20T06:43:24;6.80;99.90
51841;DHT22;37888;53.246;6.658;2023-12-20T06:45:49;6.80;99.90
51841;DHT22;37888;53.246;6.658;2023-12-20T06:48:16;6.80;99.90
51841;DHT22;37888;53.246;6.658;2023-12-20T06:50:42;6.80;99.90
51841;DHT22;37888;53.246;6.658;2023-12-20T06:53:07;7.00;99.90
51841;DHT22;37888;53.246;6.658;2023-12-20T06:55:34;6.90;99.90
51841;DHT22;37888;53.246;6.658;2023-12-20T06:58:01;6.80;99.90
51841;DHT22;37888;53.246;6.658;2023-12-20T07:00:26;6.90;99.90
51841;DHT22;37888;53.246;6.658;2023-12-20T07:02:52;7.00;99.90
51841;DHT22;37888;53.246;6.658;2023-12-20T07:05:17;6.90;99.90
51841;DHT22;37888;53.246;6.658;2023-12-20T07:07:45;6.90;99.90
51841;DHT22;37888;53.246;6.658;2023-12-20T07:10:12;7.00;99.90
51841;DHT22;37888;53.246;6.658;2023-12-20T07:12:37;7.00;99.90
51841;DHT22;37888;53.246;6.658;2023-12-20T07:15:03;7.00;99.90
51841;DHT22;37888;53.246;6.658;2023-12-20T07:17:29;7.00;99.90
51841;DHT22;37888;53.246;6.658;2023-12-20T07:19:54;7.00;99.90
51841;DHT22;37888;53.246;6.658;2023-12-20T07:22:20;7.00;99.90
51841;DHT22;37888;53.246;6.658;2023-12-20T07:24:46;7.00;99.90
51841;DHT22;37888;53.246;6.658;2023-12-20T07:27:11;7.10;99.90
51841;DHT22;37888;53.246;6.658;2023-12-20T07:29:37;7.10;99.90
51841;DHT22;37888;53.246;6.658;2023-12-20T07:32:03;7.10;99.90
51841;DHT22;37888;53.246;6.658;2023-12-20T07:34:28;7.10;99.90
51841;DHT22;37888;53.246;6.658;2023-12-20T07:36:54;7.10;99.90
51841;DHT22;37888;53.246;6.658;2023-12-20T07:39:19;7.10;99.90
51841;DHT22;37888;53.246;6.658;2023-12-20T07:41:45;7.20;99.90
51841;DHT22;37888;53.246;6.658;2023-12-20T07:44:11;7.70;99.90
51841;DHT22;37888;53.246;6.658;2023-12-20T07:46:36;7.30;99.90
51841;DHT22;37888;53.246;6.658;2023-12-20T07:49:02;7.20;99.90
51841;DHT22;37888;53.246;6.658;2023-12-20T07:51:27;7.30;99.90
51841;DHT22;37888;53.246;6.658;2023-12-20T07:53:53;7.30;99.90
51841;DHT22;37888;53.246;6.658;2023-12-20T07:56:19;7.10;99.90
51841;DHT22;37888;53.246;6.658;2023-12-20T07:58:45;7.30;99.90
51841;DHT22;37888;53.246;6.658;2023-12-20T08:01:11;7.30;99.90
51841;DHT22;37888;53.246;6.658;2023-12-20T08:03:37;7.20;99.90
51841;DHT22;37888;53.246;6.658;2023-12-20T08:06:03;7.30;99.90
51841;DHT22;37888;53.246;6.658;2023-12-20T08:08:29;7.30;99.90
51841;DHT22;37888;53.246;6.658;2023-12-20T08:10:54;7.40;99.90
51841;DHT22;37888;53.246;6.658;2023-12-20T08:13:20;7.30;99.90
51841;DHT22;37888;53.246;6.658;2023-12-20T08:15:50;7.30;99.90
51841;DHT22;37888;53.246;6.658;2023-12-20T08:18:16;7.20;99.90
51841;DHT22;37888;53.246;6.658;2023-12-20T08:20:41;7.40;99.90
51841;DHT22;37888;53.246;6.658;2023-12-20T08:23:07;7.30;99.90
51841;DHT22;37888;53.246;6.658;2023-12-20T08:25:32;8.10;99.90
51841;DHT22;37888;53.246;6.658;2023-12-20T08:27:58;7.50;99.90
51841;DHT22;37888;53.246;6.658;2023-12-20T08:30:23;7.50;99.90
51841;DHT22;37888;53.246;6.658;2023-12-20T08:32:50;7.50;99.90
51841;DHT22;37888;53.246;6.658;2023-12-20T08:35:16;7.60;99.90
51841;DHT22;37888;53.246;6.658;2023-12-20T08:37:42;7.20;99.90
51841;DHT22;37888;53.246;6.658;2023-12-20T08:40:08;5.90;99.90
51841;DHT22;37888;53.246;6.658;2023-12-20T08:42:34;5.50;99.90
51841;DHT22;37888;53.246;6.658;2023-12-20T08:45:00;3.70;99.90
51841;DHT22;37888;53.246;6.658;2023-12-20T08:47:25;5.00;99.90
51841;DHT22;37888;53.246;6.658;2023-12-20T08:49:51;4.90;99.90
51841;DHT22;37888;53.246;6.658;2023-12-20T08:52:24;3.50;99.90
51841;DHT22;37888;53.246;6.658;2023-12-20T08:54:50;4.90;99.90
51841;DHT22;37888;53.246;6.658;2023-12-20T08:57:22;4.90;99.90
51841;DHT22;37888;53.246;6.658;2023-12-20T08:59:49;5.00;99.90
51841;DHT22;37888;53.246;6.658;2023-12-20T09:02:15;5.10;99.90
51841;DHT22;37888;53.246;6.658;2023-12-20T09:04:41;5.20;99.90
51841;DHT22;37888;53.246;6.658;2023-12-20T09:07:22;5.30;99.90
51841;DHT22;37888;53.246;6.658;2023-12-20T09:09:48;5.30;99.90
51841;DHT22;37888;53.246;6.658;2023-12-20T09:12:14;5.40;99.90
51841;DHT22;37888;53.246;6.658;2023-12-20T09:14:40;5.40;99.90
51841;DHT22;37888;53.246;6.658;2023-12-20T09:17:06;5.30;99.90
51841;DHT22;37888;53.246;6.658;2023-12-20T09:19:34;5.30;99.90
51841;DHT22;37888;53.246;6.658;2023-12-20T09:22:00;5.30;99.90
51841;DHT22;37888;53.246;6.658;2023-12-20T09:24:26;5.30;99.90
51841;DHT22;37888;53.246;6.658;2023-12-20T09:26:52;5.30;99.90
51841;DHT22;37888;53.246;6.658;2023-12-20T09:29:17;5.30;99.90
51841;DHT22;37888;53.246;6.658;2023-12-20T09:31:44;5.40;99.90
51841;DHT22;37888;53.246;6.658;2023-12-20T09:34:11;5.50;99.90
51841;DHT22;37888;53.246;6.658;2023-12-20T09:36:37;5.40;99.90
51841;DHT22;37888;53.246;6.658;2023-12-20T09:39:06;5.90;99.90
51841;DHT22;37888;53.246;6.658;2023-12-20T09:41:33;5.50;99.90
51841;DHT22;37888;53.246;6.658;2023-12-20T09:44:02;5.00;99.90
51841;DHT22;37888;53.246;6.658;2023-12-20T09:46:28;5.50;99.90
51841;DHT22;37888;53.246;6.658;2023-12-20T09:48:57;5.50;99.90
51841;DHT22;37888;53.246;6.658;2023-12-20T09:51:23;5.70;99.90
51841;DHT22;37888;53.246;6.658;2023-12-20T09:53:49;5.60;99.90
51841;DHT22;37888;53.246;6.658;2023-12-20T09:56:15;5.70;99.90
51841;DHT22;37888;53.246;6.658;2023-12-20T09:58:41;5.70;99.90
51841;DHT22;37888;53.246;6.658;2023-12-20T10:01:07;5.70;99.90
51841;DHT22;37888;53.246;6.658;2023-12-20T10:03:33;5.70;99.90
51841;DHT22;37888;53.246;6.658;2023-12-20T10:05:59;5.60;99.90
51841;DHT22;37888;53.246;6.658;2023-12-20T10:08:26;5.70;99.90
51841;DHT22;37888;53.246;6.658;2023-12-20T10:10:51;5.70;99.90
51841;DHT22;37888;53.246;6.658;2023-12-20T10:13:17;5.80;99.90
51841;DHT22;37888;53.246;6.658;2023-12-20T10:15:43;5.90;99.90
51841;DHT22;37888;53.246;6.658;2023-12-20T10:18:08;6.00;99.90
51841;DHT22;37888;53.246;6.658;2023-12-20T10:20:34;6.10;99.90
51841;DHT22;37888;53.246;6.658;2023-12-20T10:23:00;6.20;99.90
51841;DHT22;37888;53.246;6.658;2023-12-20T10:25:26;6.40;99.90
51841;DHT22;37888;53.246;6.658;2023-12-20T10:28:14;6.40;99.90
51841;DHT22;37888;53.246;6.658;2023-12-20T10:30:38;6.50;99.90
51841;DHT22;37888;53.246;6.658;2023-12-20T10:33:05;6.60;99.90
51841;DHT22;37888;53.246;6.658;2023-12-20T10:35:31;6.70;99.90
51841;DHT22;37888;53.246;6.658;2023-12-20T10:37:56;6.80;99.90
51841;DHT22;37888;53.246;6.658;2023-12-20T10:40:23;6.90;99.90
51841;DHT22;37888;53.246;6.658;2023-12-20T10:42:49;6.90;99.90
51841;DHT22;37888;53.246;6.658;2023-12-20T10:45:16;7.00;99.90
51841;DHT22;37888;53.246;6.658;2023-12-20T10:47:44;7.00;99.90
51841;DHT22;37888;53.246;6.658;2023-12-20T10:50:11;7.00;99.90
51841;DHT22;37888;53.246;6.658;2023-12-20T10:52:37;6.90;99.90
51841;DHT22;37888;53.246;6.658;2023-12-20T10:55:03;6.90;99.90
51841;DHT22;37888;53.246;6.658;2023-12-20T10:57:29;6.80;99.90
51841;DHT22;37888;53.246;6.658;2023-12-20T10:59:55;6.80;99.90
51841;DHT22;37888;53.246;6.658;2023-12-20T11:02:22;6.80;99.90
51841;DHT22;37888;53.246;6.658;2023-12-20T11:04:53;6.80;99.90
51841;DHT22;37888;53.246;6.658;2023-12-20T11:07:22;6.90;99.90
51841;DHT22;37888;53.246;6.658;2023-12-20T11:09:59;6.90;99.90
51841;DHT22;37888;53.246;6.658;2023-12-20T11:12:28;6.90;99.90
51841;DHT22;37888;53.246;6.658;2023-12-20T11:14:57;6.90;99.90
51841;DHT22;37888;53.246;6.658;2023-12-20T11:17:28;6.90;99.90
51841;DHT22;37888;53.246;6.658;2023-12-20T11:22:26;6.90;99.90
51841;DHT22;37888;53.246;6.658;2023-12-20T11:24:52;6.80;99.90
51841;DHT22;37888;53.246;6.658;2023-12-20T11:27:18;6.80;99.90
51841;DHT22;37888;53.246;6.658;2023-12-20T11:29:47;6.80;99.90
51841;DHT22;37888;53.246;6.658;2023-12-20T11:34:59;6.70;99.90
51841;DHT22;37888;53.246;6.658;2023-12-20T11:37:28;6.70;99.90
51841;DHT22;37888;53.246;6.658;2023-12-20T11:40:00;6.80;99.90
51841;DHT22;37888;53.246;6.658;2023-12-20T11:42:27;6.80;99.90
51841;DHT22;37888;53.246;6.658;2023-12-20T11:44:53;6.90;99.90
51841;DHT22;37888;53.246;6.658;2023-12-20T11:47:18;7.00;99.90
51841;DHT22;37888;53.246;6.658;2023-12-20T11:49:48;7.00;99.90
51841;DHT22;37888;53.246;6.658;2023-12-20T11:52:14;7.00;99.90
51841;DHT22;37888;53.246;6.658;2023-12-20T11:54:40;7.00;99.90
51841;DHT22;37888;53.246;6.658;2023-12-20T11:57:05;7.00;99.90
51841;DHT22;37888;53.246;6.658;2023-12-20T11:59:31;7.00;99.90
51841;DHT22;37888;53.246;6.658;2023-12-20T12:01:56;7.00;99.90
51841;DHT22;37888;53.246;6.658;2023-12-20T12:04:26;7.00;99.90
51841;DHT22;37888;53.246;6.658;2023-12-20T12:06:52;7.00;99.90
51841;DHT22;37888;53.246;6.658;2023-12-20T12:09:17;7.00;99.90
51841;DHT22;37888;53.246;6.658;2023-12-20T12:11:43;6.40;99.90
51841;DHT22;37888;53.246;6.658;2023-12-20T12:14:09;6.90;99.90
51841;DHT22;37888;53.246;6.658;2023-12-20T12:16:35;6.90;99.90
51841;DHT22;37888;53.246;6.658;2023-12-20T12:19:00;6.90;99.90
51841;DHT22;37888;53.246;6.658;2023-12-20T12:21:26;6.80;99.90
51841;DHT22;37888;53.246;6.658;2023-12-20T12:23:51;6.90;99.90
51841;DHT22;37888;53.246;6.658;2023-12-20T12:26:18;6.80;99.90
51841;DHT22;37888;53.246;6.658;2023-12-20T12:28:44;6.80;99.90
51841;DHT22;37888;53.246;6.658;2023-12-20T12:31:13;6.80;99.90
51841;DHT22;37888;53.246;6.658;2023-12-20T12:33:40;6.80;99.90
51841;DHT22;37888;53.246;6.658;2023-12-20T12:36:06;6.80;99.90
51841;DHT22;37888;53.246;6.658;2023-12-20T12:38:33;6.80;99.90
51841;DHT22;37888;53.246;6.658;2023-12-20T12:41:00;6.80;99.90
51841;DHT22;37888;53.246;6.658;2023-12-20T12:43:25;6.80;99.90
51841;DHT22;37888;53.246;6.658;2023-12-20T12:45:51;6.80;99.90
51841;DHT22;37888;53.246;6.658;2023-12-20T12:48:17;6.80;99.90
51841;DHT22;37888;53.246;6.658;2023-12-20T12:50:43;6.90;99.90
51841;DHT22;37888;53.246;6.658;2023-12-20T12:53:08;6.90;99.90
51841;DHT22;37888;53.246;6.658;2023-12-20T12:55:34;6.90;99.90
51841;DHT22;37888;53.246;6.658;2023-12-20T12:58:00;7.00;99.90
51841;DHT22;37888;53.246;6.658;2023-12-20T13:00:26;7.00;99.90
51841;DHT22;37888;53.246;6.658;2023-12-20T13:02:52;7.00;99.90
51841;DHT22;37888;53.246;6.658;2023-12-20T13:05:17;6.90;99.90
51841;DHT22;37888;53.246;6.658;2023-12-20T13:07:43;7.00;99.90
51841;DHT22;37888;53.246;6.658;2023-12-20T13:10:10;6.90;99.90
51841;DHT22;37888;53.246;6.658;2023-12-20T13:12:36;6.90;99.90
51841;DHT22;37888;53.246;6.658;2023-12-20T13:15:02;6.90;99.90
51841;DHT22;37888;53.246;6.658;2023-12-20T13:17:29;6.90;99.90
51841;DHT22;37888;53.246;6.658;2023-12-20T13:19:55;6.90;99.90
51841;DHT22;37888;53.246;6.658;2023-12-20T13:22:20;6.50;99.90
51841;DHT22;37888;53.246;6.658;2023-12-20T13:24:46;6.90;99.90
51841;DHT22;37888;53.246;6.658;2023-12-20T13:27:11;6.90;99.90
51841;DHT22;37888;53.246;6.658;2023-12-20T13:29:37;6.90;99.90
51841;DHT22;37888;53.246;6.658;2023-12-20T13:32:03;6.90;99.90
51841;DHT22;37888;53.246;6.658;2023-12-20T13:34:29;6.90;99.90
51841;DHT22;37888;53.246;6.658;2023-12-20T13:36:54;6.90;99.90
51841;DHT22;37888;53.246;6.658;2023-12-20T13:39:20;6.80;99.90
51841;DHT22;37888;53.246;6.658;2023-12-20T13:41:46;6.90;99.90
51841;DHT22;37888;53.246;6.658;2023-12-20T13:44:12;5.90;99.90
51841;DHT22;37888;53.246;6.658;2023-12-20T13:46:38;6.80;99.90
51841;DHT22;37888;53.246;6.658;2023-12-20T13:49:04;6.80;99.90
51841;DHT22;37888;53.246;6.658;2023-12-20T13:51:30;6.80;99.90
51841;DHT22;37888;53.246;6.658;2023-12-20T13:53:56;6.80;99.90
51841;DHT22;37888;53.246;6.658;2023-12-20T13:56:22;5.40;99.90
51841;DHT22;37888;53.246;6.658;2023-12-20T13:58:49;6.70;99.90
51841;DHT22;37888;53.246;6.658;2023-12-20T14:01:16;6.70;99.90
51841;DHT22;37888;53.246;6.658;2023-12-20T14:03:42;6.70;99.90
51841;DHT22;37888;53.246;6.658;2023-12-20T14:06:07;6.60;99.90
51841;DHT22;37888;53.246;6.658;2023-12-20T14:08:33;6.60;99.90
51841;DHT22;37888;53.246;6.658;2023-12-20T14:10:59;6.60;99.90
51841;DHT22;37888;53.246;6.658;2023-12-20T14:13:26;6.50;99.90
51841;DHT22;37888;53.246;6.658;2023-12-20T14:15:52;6.60;99.90
51841;DHT22;37888;53.246;6.658;2023-12-20T14:18:19;6.30;99.90
51841;DHT22;37888;53.246;6.658;2023-12-20T14:20:45;6.50;99.90
51841;DHT22;37888;53.246;6.658;2023-12-20T14:23:12;6.50;99.90
51841;DHT22;37888;53.246;6.658;2023-12-20T14:25:41;6.50;99.90
51841;DHT22;37888;53.246;6.658;2023-12-20T14:28:06;5.10;99.90
51841;DHT22;37888;53.246;6.658;2023-12-20T14:30:32;6.40;99.90
51841;DHT22;37888;53.246;6.658;2023-12-20T14:32:58;6.40;99.90
51841;DHT22;37888;53.246;6.658;2023-12-20T14:35:23;6.40;99.90
51841;DHT22;37888;53.246;6.658;2023-12-20T14:37:49;6.50;99.90
51841;DHT22;37888;53.246;6.658;2023-12-20T14:40:15;6.40;99.90
51841;DHT22;37888;53.246;6.658;2023-12-20T14:42:42;6.70;99.90
51841;DHT22;37888;53.246;6.658;2023-12-20T14:45:08;6.30;99.90
51841;DHT22;37888;53.246;6.658;2023-12-20T14:47:34;6.30;99.90
51841;DHT22;37888;53.246;6.658;2023-12-20T14:50:04;6.30;99.90
51841;DHT22;37888;53.246;6.658;2023-12-20T14:52:31;6.20;99.90
51841;DHT22;37888;53.246;6.658;2023-12-20T14:54:57;6.20;99.90
51841;DHT22;37888;53.246;6.658;2023-12-20T14:57:23;6.10;99.90
51841;DHT22;37888;53.246;6.658;2023-12-20T14:59:48;6.10;99.90
51841;DHT22;37888;53.246;6.658;2023-12-20T15:02:14;6.20;99.90
51841;DHT22;37888;53.246;6.658;2023-12-20T15:04:41;6.10;99.90
51841;DHT22;37888;53.246;6.658;2023-12-20T15:07:06;6.00;99.90
51841;DHT22;37888;53.246;6.658;2023-12-20T15:09:32;6.00;99.90
51841;DHT22;37888;53.246;6.658;2023-12-20T15:11:57;6.00;99.90
51841;DHT22;37888;53.246;6.658;2023-12-20T15:14:23;4.50;99.90
51841;DHT22;37888;53.246;6.658;2023-12-20T15:16:49;6.10;99.90
51841;DHT22;37888;53.246;6.658;2023-12-20T15:19:14;6.00;99.90
51841;DHT22;37888;53.246;6.658;2023-12-20T15:21:41;6.10;99.90
51841;DHT22;37888;53.246;6.658;2023-12-20T15:24:08;6.10;99.90
51841;DHT22;37888;53.246;6.658;2023-12-20T15:26:41;6.10;99.90
51841;DHT22;37888;53.246;6.658;2023-12-20T15:29:08;6.00;99.90
51841;DHT22;37888;53.246;6.658;2023-12-20T15:31:35;6.10;99.90
51841;DHT22;37888;53.246;6.658;2023-12-20T15:34:02;6.00;99.90
51841;DHT22;37888;53.246;6.658;2023-12-20T15:36:27;6.00;99.90
51841;DHT22;37888;53.246;6.658;2023-12-20T15:38:53;6.00;99.90
51841;DHT22;37888;53.246;6.658;2023-12-20T15:41:19;6.00;99.90
51841;DHT22;37888;53.246;6.658;2023-12-20T15:43:45;6.00;99.90
51841;DHT22;37888;53.246;6.658;2023-12-20T15:46:10;6.00;99.90